Impacts TAF Board INFO
FOR SITUATIONAL AWARENESS. NOT TO BE USED FOR FLIGHT PLANNING PURPOSES.
IDs:

KFLL - Ft Lauderdale-Hollyw, FL, US

Issued at 1501 UTC 25 Feb 2018
Updated at 1538 UTC 25 Feb 2018
Potential Impact None Slight Moderate High
Time1453Z 25/16Z 25/17Z 25/18Z 25/19Z 25/20Z 25/21Z 25/22Z 25/23Z 26/00Z 26/01Z 26/02Z 26/03Z 26/04Z>>
Type OBS PRVL PRVL PRVL PRVL PRVL PRVL PRVL PRVL PRVL PRVL PRVL PRVL PRVL
VIS 10 >6 >6 >6 >6 >6 >6 >6 >6 >6 >6 >6 >6 >6
CIG -- -- -- -- -- -- -- -- -- -- -- -- -- --
Cover SCT SCT SCT SCT SCT SCT SCT SCT SCT SCT FEW FEW FEW FEW
FltCat VFR VFR VFR VFR VFR VFR VFR VFR VFR VFR VFR VFR VFR VFR
WX -- -- -- -- -- -- -- -- -- -- -- -- -- --
WDir 120 120 120 120 120 120 120 120 120 120 VRB VRB VRB VRB
WSpd 12 12 12 12 12 12 12 12 12 12 5 5 5 5
WGst -- -- -- -- -- -- -- -- -- -- -- -- -- --

Raw TAF
KFLL 251501Z 2515/2618 12012KT P6SM SCT025
  FM260100 VRB05KT P6SM FEW030


Raw METAR
KFLL 251453Z 12012KT 10SM SCT023 26/21 A3019 RMK AO2 SLP223 T02610211 51009
KFLL 251353Z 13012KT 10SM SCT028 25/21 A3018 RMK AO2 SLP220 T02500206
KFLL 251253Z 13009KT 10SM FEW023 FEW080 24/21 A3017 RMK AO2 SLP217 T02390206

METAR Board
Radar Display
Forecast Discussion

FOR SITUATIONAL AWARENESS. NOT TO BE USED FOR FLIGHT PLANNING PURPOSES.